sensor_id;sensor_type;location;lat;lon;timestamp;P1;durP1;ratioP1;P2;durP2;ratioP2
5257;SDS011;2651;51.594;9.928;2022-10-13T00:00:55;21.38;;;9.73;;
5257;SDS011;2651;51.594;9.928;2022-10-13T00:01:57;20.98;;;9.90;;
5257;SDS011;2651;51.594;9.928;2022-10-13T00:02:59;20.90;;;10.13;;
5257;SDS011;2651;51.594;9.928;2022-10-13T00:04:01;15.98;;;10.07;;
5257;SDS011;2651;51.594;9.928;2022-10-13T00:05:03;14.82;;;10.60;;
5257;SDS011;2651;51.594;9.928;2022-10-13T00:06:06;24.55;;;10.00;;
5257;SDS011;2651;51.594;9.928;2022-10-13T00:07:09;22.05;;;10.90;;
5257;SDS011;2651;51.594;9.928;2022-10-13T00:08:12;17.95;;;9.65;;
5257;SDS011;2651;51.594;9.928;2022-10-13T00:09:15;15.70;;;9.50;;
5257;SDS011;2651;51.594;9.928;2022-10-13T00:10:17;12.90;;;9.52;;
5257;SDS011;2651;51.594;9.928;2022-10-13T00:11:20;16.08;;;9.63;;
5257;SDS011;2651;51.594;9.928;2022-10-13T00:12:23;13.90;;;10.05;;
5257;SDS011;2651;51.594;9.928;2022-10-13T00:13:25;17.25;;;9.77;;
5257;SDS011;2651;51.594;9.928;2022-10-13T00:14:27;17.73;;;10.27;;
5257;SDS011;2651;51.594;9.928;2022-10-13T00:15:29;22.60;;;11.02;;
5257;SDS011;2651;51.594;9.928;2022-10-13T00:16:31;13.52;;;9.80;;
5257;SDS011;2651;51.594;9.928;2022-10-13T00:17:33;20.25;;;10.50;;
5257;SDS011;2651;51.594;9.928;2022-10-13T00:18:36;12.93;;;9.60;;
5257;SDS011;2651;51.594;9.928;2022-10-13T00:19:38;12.85;;;9.52;;
5257;SDS011;2651;51.594;9.928;2022-10-13T00:20:41;15.43;;;9.85;;
5257;SDS011;2651;51.594;9.928;2022-10-13T00:21:46;14.70;;;9.15;;
5257;SDS011;2651;51.594;9.928;2022-10-13T00:22:48;18.42;;;9.82;;
5257;SDS011;2651;51.594;9.928;2022-10-13T00:23:50;13.70;;;9.32;;
5257;SDS011;2651;51.594;9.928;2022-10-13T00:24:53;18.48;;;9.18;;
5257;SDS011;2651;51.594;9.928;2022-10-13T00:25:56;17.23;;;9.80;;
5257;SDS011;2651;51.594;9.928;2022-10-13T00:26:57;16.55;;;9.95;;
5257;SDS011;2651;51.594;9.928;2022-10-13T00:27:59;15.55;;;9.35;;
5257;SDS011;2651;51.594;9.928;2022-10-13T00:29:00;12.63;;;10.23;;
5257;SDS011;2651;51.594;9.928;2022-10-13T00:30:02;14.27;;;8.35;;
5257;SDS011;2651;51.594;9.928;2022-10-13T00:32:35;19.55;;;9.15;;
5257;SDS011;2651;51.594;9.928;2022-10-13T00:33:37;14.90;;;9.20;;
5257;SDS011;2651;51.594;9.928;2022-10-13T00:34:38;17.23;;;10.55;;
5257;SDS011;2651;51.594;9.928;2022-10-13T00:35:42;15.65;;;9.68;;
5257;SDS011;2651;51.594;9.928;2022-10-13T00:36:45;13.77;;;9.35;;
5257;SDS011;2651;51.594;9.928;2022-10-13T00:37:47;16.58;;;9.75;;
5257;SDS011;2651;51.594;9.928;2022-10-13T00:38:49;19.02;;;10.02;;
5257;SDS011;2651;51.594;9.928;2022-10-13T00:39:51;15.10;;;9.63;;
5257;SDS011;2651;51.594;9.928;2022-10-13T00:40:53;14.52;;;9.20;;
5257;SDS011;2651;51.594;9.928;2022-10-13T00:41:56;12.98;;;8.88;;
5257;SDS011;2651;51.594;9.928;2022-10-13T00:42:58;13.02;;;8.98;;
5257;SDS011;2651;51.594;9.928;2022-10-13T00:44:04;18.92;;;9.77;;
5257;SDS011;2651;51.594;9.928;2022-10-13T00:45:26;13.45;;;9.80;;
5257;SDS011;2651;51.594;9.928;2022-10-13T00:46:30;13.65;;;8.80;;
5257;SDS011;2651;51.594;9.928;2022-10-13T00:47:35;18.77;;;9.10;;
5257;SDS011;2651;51.594;9.928;2022-10-13T00:48:39;14.50;;;8.35;;
5257;SDS011;2651;51.594;9.928;2022-10-13T00:49:43;10.50;;;8.57;;
5257;SDS011;2651;51.594;9.928;2022-10-13T00:50:45;14.32;;;8.35;;
5257;SDS011;2651;51.594;9.928;2022-10-13T00:51:47;13.63;;;8.80;;
5257;SDS011;2651;51.594;9.928;2022-10-13T00:52:50;10.38;;;8.60;;
5257;SDS011;2651;51.594;9.928;2022-10-13T00:53:54;13.88;;;8.95;;
5257;SDS011;2651;51.594;9.928;2022-10-13T00:54:57;13.30;;;9.52;;
5257;SDS011;2651;51.594;9.928;2022-10-13T00:56:00;25.90;;;9.82;;
5257;SDS011;2651;51.594;9.928;2022-10-13T00:57:02;10.27;;;8.63;;
5257;SDS011;2651;51.594;9.928;2022-10-13T00:58:06;21.27;;;10.35;;
5257;SDS011;2651;51.594;9.928;2022-10-13T00:59:12;20.48;;;10.73;;
5257;SDS011;2651;51.594;9.928;2022-10-13T01:00:23;14.07;;;9.52;;
5257;SDS011;2651;51.594;9.928;2022-10-13T01:01:25;12.73;;;9.48;;
5257;SDS011;2651;51.594;9.928;2022-10-13T01:02:28;12.80;;;8.88;;
5257;SDS011;2651;51.594;9.928;2022-10-13T01:03:35;12.25;;;10.55;;
5257;SDS011;2651;51.594;9.928;2022-10-13T01:04:39;19.38;;;10.18;;
5257;SDS011;2651;51.594;9.928;2022-10-13T01:05:44;14.98;;;9.45;;
5257;SDS011;2651;51.594;9.928;2022-10-13T01:06:46;16.02;;;10.15;;
5257;SDS011;2651;51.594;9.928;2022-10-13T01:07:49;13.77;;;10.45;;
5257;SDS011;2651;51.594;9.928;2022-10-13T01:08:52;18.15;;;10.93;;
5257;SDS011;2651;51.594;9.928;2022-10-13T01:09:54;21.02;;;10.13;;
5257;SDS011;2651;51.594;9.928;2022-10-13T01:12:21;12.35;;;9.40;;
5257;SDS011;2651;51.594;9.928;2022-10-13T01:16:49;12.48;;;10.05;;
5257;SDS011;2651;51.594;9.928;2022-10-13T01:19:29;16.60;;;10.65;;
5257;SDS011;2651;51.594;9.928;2022-10-13T01:21:01;27.05;;;10.48;;
5257;SDS011;2651;51.594;9.928;2022-10-13T01:27:28;15.23;;;10.32;;
5257;SDS011;2651;51.594;9.928;2022-10-13T01:30:36;17.80;;;11.15;;
5257;SDS011;2651;51.594;9.928;2022-10-13T01:31:58;15.00;;;10.50;;
5257;SDS011;2651;51.594;9.928;2022-10-13T01:34:33;17.48;;;10.07;;
5257;SDS011;2651;51.594;9.928;2022-10-13T01:37:10;17.00;;;9.93;;
5257;SDS011;2651;51.594;9.928;2022-10-13T01:40:04;12.55;;;8.75;;
5257;SDS011;2651;51.594;9.928;2022-10-13T01:41:14;19.88;;;9.48;;
5257;SDS011;2651;51.594;9.928;2022-10-13T01:42:21;19.38;;;10.93;;
5257;SDS011;2651;51.594;9.928;2022-10-13T01:43:30;14.85;;;10.75;;
5257;SDS011;2651;51.594;9.928;2022-10-13T01:44:39;13.60;;;9.40;;
5257;SDS011;2651;51.594;9.928;2022-10-13T01:45:46;17.75;;;10.50;;
5257;SDS011;2651;51.594;9.928;2022-10-13T01:46:52;14.90;;;9.73;;
5257;SDS011;2651;51.594;9.928;2022-10-13T01:47:55;14.55;;;9.38;;
5257;SDS011;2651;51.594;9.928;2022-10-13T01:49:00;14.65;;;9.48;;
5257;SDS011;2651;51.594;9.928;2022-10-13T01:50:06;12.23;;;9.68;;
5257;SDS011;2651;51.594;9.928;2022-10-13T01:51:08;16.33;;;9.70;;
5257;SDS011;2651;51.594;9.928;2022-10-13T01:52:18;15.77;;;9.80;;
5257;SDS011;2651;51.594;9.928;2022-10-13T01:53:22;11.05;;;9.48;;
5257;SDS011;2651;51.594;9.928;2022-10-13T01:54:24;17.52;;;10.38;;
5257;SDS011;2651;51.594;9.928;2022-10-13T01:55:26;18.05;;;9.52;;
5257;SDS011;2651;51.594;9.928;2022-10-13T01:56:29;13.27;;;9.82;;
5257;SDS011;2651;51.594;9.928;2022-10-13T01:57:32;20.25;;;9.93;;
5257;SDS011;2651;51.594;9.928;2022-10-13T01:58:36;13.55;;;9.65;;
5257;SDS011;2651;51.594;9.928;2022-10-13T01:59:38;12.88;;;9.13;;
5257;SDS011;2651;51.594;9.928;2022-10-13T02:00:41;15.60;;;9.45;;
5257;SDS011;2651;51.594;9.928;2022-10-13T02:01:57;17.02;;;9.75;;
5257;SDS011;2651;51.594;9.928;2022-10-13T02:06:20;13.93;;;10.02;;
5257;SDS011;2651;51.594;9.928;2022-10-13T02:07:28;14.57;;;10.27;;
5257;SDS011;2651;51.594;9.928;2022-10-13T02:12:18;11.88;;;8.88;;
5257;SDS011;2651;51.594;9.928;2022-10-13T02:13:27;12.38;;;9.30;;
5257;SDS011;2651;51.594;9.928;2022-10-13T02:14:32;14.32;;;10.73;;
5257;SDS011;2651;51.594;9.928;2022-10-13T02:15:44;18.83;;;9.98;;
5257;SDS011;2651;51.594;9.928;2022-10-13T02:16:49;14.98;;;9.52;;
5257;SDS011;2651;51.594;9.928;2022-10-13T02:17:53;10.80;;;9.07;;
5257;SDS011;2651;51.594;9.928;2022-10-13T02:18:56;17.63;;;9.77;;
5257;SDS011;2651;51.594;9.928;2022-10-13T02:19:58;15.98;;;9.27;;
5257;SDS011;2651;51.594;9.928;2022-10-13T02:21:00;15.35;;;9.55;;
5257;SDS011;2651;51.594;9.928;2022-10-13T02:22:03;13.82;;;9.38;;
5257;SDS011;2651;51.594;9.928;2022-10-13T02:23:08;13.88;;;9.55;;
5257;SDS011;2651;51.594;9.928;2022-10-13T02:24:13;18.67;;;10.15;;
5257;SDS011;2651;51.594;9.928;2022-10-13T02:25:15;14.75;;;10.15;;
5257;SDS011;2651;51.594;9.928;2022-10-13T02:26:17;13.40;;;9.07;;
5257;SDS011;2651;51.594;9.928;2022-10-13T02:27:20;14.10;;;9.13;;
5257;SDS011;2651;51.594;9.928;2022-10-13T02:28:22;16.17;;;8.98;;
5257;SDS011;2651;51.594;9.928;2022-10-13T02:29:24;11.18;;;9.43;;
5257;SDS011;2651;51.594;9.928;2022-10-13T02:30:27;16.38;;;9.35;;
5257;SDS011;2651;51.594;9.928;2022-10-13T02:31:30;13.07;;;9.55;;
5257;SDS011;2651;51.594;9.928;2022-10-13T02:32:32;12.73;;;8.90;;
5257;SDS011;2651;51.594;9.928;2022-10-13T02:33:33;17.65;;;10.63;;
5257;SDS011;2651;51.594;9.928;2022-10-13T02:34:35;16.98;;;9.40;;
5257;SDS011;2651;51.594;9.928;2022-10-13T02:35:37;14.60;;;9.80;;
5257;SDS011;2651;51.594;9.928;2022-10-13T02:36:39;12.80;;;10.40;;
5257;SDS011;2651;51.594;9.928;2022-10-13T02:37:41;20.13;;;10.23;;
5257;SDS011;2651;51.594;9.928;2022-10-13T02:38:42;11.70;;;10.50;;
5257;SDS011;2651;51.594;9.928;2022-10-13T02:39:44;13.93;;;9.45;;
5257;SDS011;2651;51.594;9.928;2022-10-13T02:40:46;13.65;;;9.88;;
5257;SDS011;2651;51.594;9.928;2022-10-13T02:41:47;17.85;;;9.75;;
5257;SDS011;2651;51.594;9.928;2022-10-13T02:42:50;17.73;;;10.05;;
5257;SDS011;2651;51.594;9.928;2022-10-13T02:43:52;12.30;;;10.30;;
5257;SDS011;2651;51.594;9.928;2022-10-13T02:44:54;13.05;;;9.50;;
5257;SDS011;2651;51.594;9.928;2022-10-13T02:45:55;14.70;;;9.43;;
5257;SDS011;2651;51.594;9.928;2022-10-13T02:46:57;12.65;;;9.40;;
5257;SDS011;2651;51.594;9.928;2022-10-13T02:47:59;12.85;;;8.80;;
5257;SDS011;2651;51.594;9.928;2022-10-13T02:49:01;14.65;;;9.77;;
5257;SDS011;2651;51.594;9.928;2022-10-13T02:50:02;19.60;;;9.43;;
5257;SDS011;2651;51.594;9.928;2022-10-13T02:51:05;16.15;;;9.93;;
5257;SDS011;2651;51.594;9.928;2022-10-13T02:52:07;14.65;;;10.00;;
5257;SDS011;2651;51.594;9.928;2022-10-13T02:53:08;24.02;;;10.07;;
5257;SDS011;2651;51.594;9.928;2022-10-13T02:54:10;15.10;;;9.63;;
5257;SDS011;2651;51.594;9.928;2022-10-13T02:55:11;20.67;;;9.95;;
5257;SDS011;2651;51.594;9.928;2022-10-13T02:56:14;14.80;;;9.35;;
5257;SDS011;2651;51.594;9.928;2022-10-13T02:57:16;18.00;;;9.70;;
5257;SDS011;2651;51.594;9.928;2022-10-13T02:58:18;12.77;;;9.75;;
5257;SDS011;2651;51.594;9.928;2022-10-13T02:59:20;15.52;;;10.20;;
5257;SDS011;2651;51.594;9.928;2022-10-13T03:00:21;20.75;;;10.25;;
5257;SDS011;2651;51.594;9.928;2022-10-13T03:01:23;14.38;;;10.00;;
5257;SDS011;2651;51.594;9.928;2022-10-13T03:02:25;14.68;;;10.10;;
5257;SDS011;2651;51.594;9.928;2022-10-13T03:03:27;19.13;;;10.75;;
5257;SDS011;2651;51.594;9.928;2022-10-13T03:04:29;24.00;;;11.70;;
5257;SDS011;2651;51.594;9.928;2022-10-13T03:05:31;14.60;;;11.00;;
5257;SDS011;2651;51.594;9.928;2022-10-13T03:06:33;16.27;;;12.40;;
5257;SDS011;2651;51.594;9.928;2022-10-13T03:07:34;21.10;;;11.70;;
5257;SDS011;2651;51.594;9.928;2022-10-13T03:08:36;21.67;;;11.98;;
5257;SDS011;2651;51.594;9.928;2022-10-13T03:09:38;13.65;;;10.43;;
5257;SDS011;2651;51.594;9.928;2022-10-13T03:10:40;15.80;;;11.70;;
5257;SDS011;2651;51.594;9.928;2022-10-13T03:11:41;17.10;;;11.75;;
5257;SDS011;2651;51.594;9.928;2022-10-13T03:12:43;19.75;;;12.00;;
5257;SDS011;2651;51.594;9.928;2022-10-13T03:13:44;17.65;;;11.32;;
5257;SDS011;2651;51.594;9.928;2022-10-13T03:14:46;16.20;;;11.20;;
5257;SDS011;2651;51.594;9.928;2022-10-13T03:15:48;15.23;;;10.93;;
5257;SDS011;2651;51.594;9.928;2022-10-13T03:16:50;22.85;;;11.70;;
5257;SDS011;2651;51.594;9.928;2022-10-13T03:17:51;13.43;;;11.23;;
5257;SDS011;2651;51.594;9.928;2022-10-13T03:18:53;14.88;;;10.98;;
5257;SDS011;2651;51.594;9.928;2022-10-13T03:19:54;15.13;;;11.15;;
5257;SDS011;2651;51.594;9.928;2022-10-13T03:21:00;14.80;;;11.02;;
5257;SDS011;2651;51.594;9.928;2022-10-13T03:22:04;21.17;;;11.90;;
5257;SDS011;2651;51.594;9.928;2022-10-13T03:23:06;18.88;;;11.90;;
5257;SDS011;2651;51.594;9.928;2022-10-13T03:24:08;18.92;;;11.18;;
5257;SDS011;2651;51.594;9.928;2022-10-13T03:25:09;21.60;;;11.77;;
5257;SDS011;2651;51.594;9.928;2022-10-13T03:26:11;16.42;;;11.43;;
5257;SDS011;2651;51.594;9.928;2022-10-13T03:27:12;15.50;;;11.10;;
5257;SDS011;2651;51.594;9.928;2022-10-13T03:28:14;15.43;;;10.93;;
5257;SDS011;2651;51.594;9.928;2022-10-13T03:29:16;16.35;;;11.68;;
5257;SDS011;2651;51.594;9.928;2022-10-13T03:30:18;18.35;;;12.13;;
5257;SDS011;2651;51.594;9.928;2022-10-13T03:31:20;19.60;;;12.75;;
5257;SDS011;2651;51.594;9.928;2022-10-13T03:32:21;13.70;;;11.50;;
5257;SDS011;2651;51.594;9.928;2022-10-13T03:33:23;20.05;;;11.60;;
5257;SDS011;2651;51.594;9.928;2022-10-13T03:34:25;20.83;;;12.20;;
5257;SDS011;2651;51.594;9.928;2022-10-13T03:35:26;16.23;;;11.95;;
5257;SDS011;2651;51.594;9.928;2022-10-13T03:36:28;16.13;;;10.98;;
5257;SDS011;2651;51.594;9.928;2022-10-13T03:37:30;15.57;;;11.95;;
5257;SDS011;2651;51.594;9.928;2022-10-13T03:38:32;18.20;;;10.95;;
5257;SDS011;2651;51.594;9.928;2022-10-13T03:39:34;18.13;;;11.38;;
5257;SDS011;2651;51.594;9.928;2022-10-13T03:40:36;18.20;;;11.40;;
5257;SDS011;2651;51.594;9.928;2022-10-13T03:41:38;18.20;;;10.15;;
5257;SDS011;2651;51.594;9.928;2022-10-13T03:42:40;21.92;;;12.43;;
5257;SDS011;2651;51.594;9.928;2022-10-13T03:43:42;21.45;;;12.05;;
5257;SDS011;2651;51.594;9.928;2022-10-13T03:44:44;17.52;;;11.13;;
5257;SDS011;2651;51.594;9.928;2022-10-13T03:45:56;19.08;;;12.43;;
5257;SDS011;2651;51.594;9.928;2022-10-13T03:46:58;15.52;;;11.15;;
5257;SDS011;2651;51.594;9.928;2022-10-13T03:48:00;15.68;;;10.80;;
5257;SDS011;2651;51.594;9.928;2022-10-13T03:49:02;15.52;;;11.57;;
5257;SDS011;2651;51.594;9.928;2022-10-13T03:50:04;17.38;;;11.35;;
5257;SDS011;2651;51.594;9.928;2022-10-13T03:51:07;14.65;;;11.43;;
5257;SDS011;2651;51.594;9.928;2022-10-13T03:52:10;14.75;;;11.13;;
5257;SDS011;2651;51.594;9.928;2022-10-13T03:53:12;23.67;;;11.77;;
5257;SDS011;2651;51.594;9.928;2022-10-13T03:54:13;17.00;;;12.10;;
5257;SDS011;2651;51.594;9.928;2022-10-13T03:55:15;14.30;;;11.35;;
5257;SDS011;2651;51.594;9.928;2022-10-13T03:56:18;19.70;;;12.32;;
5257;SDS011;2651;51.594;9.928;2022-10-13T03:57:21;17.13;;;12.00;;
5257;SDS011;2651;51.594;9.928;2022-10-13T03:58:23;31.75;;;11.88;;
5257;SDS011;2651;51.594;9.928;2022-10-13T03:59:25;19.23;;;10.77;;
5257;SDS011;2651;51.594;9.928;2022-10-13T04:00:35;22.42;;;12.35;;
5257;SDS011;2651;51.594;9.928;2022-10-13T04:01:37;15.50;;;12.13;;
5257;SDS011;2651;51.594;9.928;2022-10-13T04:02:39;20.60;;;11.40;;
5257;SDS011;2651;51.594;9.928;2022-10-13T04:03:41;17.83;;;11.90;;
5257;SDS011;2651;51.594;9.928;2022-10-13T04:04:42;19.83;;;11.65;;
5257;SDS011;2651;51.594;9.928;2022-10-13T04:05:44;20.25;;;12.45;;
5257;SDS011;2651;51.594;9.928;2022-10-13T04:06:46;14.00;;;11.13;;
5257;SDS011;2651;51.594;9.928;2022-10-13T04:07:48;16.70;;;11.60;;
5257;SDS011;2651;51.594;9.928;2022-10-13T04:08:50;13.75;;;11.10;;
5257;SDS011;2651;51.594;9.928;2022-10-13T04:09:52;21.48;;;11.85;;
5257;SDS011;2651;51.594;9.928;2022-10-13T04:11:00;20.92;;;12.18;;
5257;SDS011;2651;51.594;9.928;2022-10-13T04:12:04;16.70;;;11.55;;
5257;SDS011;2651;51.594;9.928;2022-10-13T04:13:06;18.80;;;12.40;;
5257;SDS011;2651;51.594;9.928;2022-10-13T04:14:08;18.55;;;12.32;;
5257;SDS011;2651;51.594;9.928;2022-10-13T04:15:10;19.40;;;11.98;;
5257;SDS011;2651;51.594;9.928;2022-10-13T04:16:13;19.90;;;12.60;;
5257;SDS011;2651;51.594;9.928;2022-10-13T04:17:14;21.67;;;13.48;;
5257;SDS011;2651;51.594;9.928;2022-10-13T04:18:16;17.77;;;11.98;;
5257;SDS011;2651;51.594;9.928;2022-10-13T04:19:17;18.40;;;12.15;;
5257;SDS011;2651;51.594;9.928;2022-10-13T04:20:19;16.75;;;12.07;;
5257;SDS011;2651;51.594;9.928;2022-10-13T04:21:21;19.83;;;12.45;;
5257;SDS011;2651;51.594;9.928;2022-10-13T04:22:23;27.45;;;12.60;;
5257;SDS011;2651;51.594;9.928;2022-10-13T04:23:25;16.25;;;11.85;;
5257;SDS011;2651;51.594;9.928;2022-10-13T04:24:27;20.63;;;12.63;;
5257;SDS011;2651;51.594;9.928;2022-10-13T04:25:28;21.58;;;13.18;;
5257;SDS011;2651;51.594;9.928;2022-10-13T04:26:31;20.38;;;11.40;;
5257;SDS011;2651;51.594;9.928;2022-10-13T04:27:35;17.88;;;12.20;;
5257;SDS011;2651;51.594;9.928;2022-10-13T04:28:39;20.33;;;12.23;;
5257;SDS011;2651;51.594;9.928;2022-10-13T04:29:41;18.92;;;12.40;;
5257;SDS011;2651;51.594;9.928;2022-10-13T04:30:42;23.80;;;12.15;;
5257;SDS011;2651;51.594;9.928;2022-10-13T04:31:49;16.20;;;12.65;;
5257;SDS011;2651;51.594;9.928;2022-10-13T04:32:51;18.20;;;13.32;;
5257;SDS011;2651;51.594;9.928;2022-10-13T04:33:52;18.23;;;11.60;;
5257;SDS011;2651;51.594;9.928;2022-10-13T04:34:54;27.08;;;13.75;;
5257;SDS011;2651;51.594;9.928;2022-10-13T04:35:56;17.88;;;12.80;;
5257;SDS011;2651;51.594;9.928;2022-10-13T04:36:58;20.27;;;12.70;;
5257;SDS011;2651;51.594;9.928;2022-10-13T04:37:59;30.23;;;13.70;;
5257;SDS011;2651;51.594;9.928;2022-10-13T04:39:01;19.63;;;12.93;;
5257;SDS011;2651;51.594;9.928;2022-10-13T04:40:03;17.73;;;12.88;;
5257;SDS011;2651;51.594;9.928;2022-10-13T04:41:06;17.60;;;12.95;;
5257;SDS011;2651;51.594;9.928;2022-10-13T04:42:08;18.55;;;12.55;;
5257;SDS011;2651;51.594;9.928;2022-10-13T04:43:10;16.73;;;12.73;;
5257;SDS011;2651;51.594;9.928;2022-10-13T04:44:12;20.08;;;13.30;;
5257;SDS011;2651;51.594;9.928;2022-10-13T04:45:13;16.60;;;12.30;;
5257;SDS011;2651;51.594;9.928;2022-10-13T04:46:16;23.42;;;13.80;;
5257;SDS011;2651;51.594;9.928;2022-10-13T04:47:19;16.85;;;12.30;;
5257;SDS011;2651;51.594;9.928;2022-10-13T04:48:21;23.65;;;13.38;;
5257;SDS011;2651;51.594;9.928;2022-10-13T04:49:23;23.48;;;13.23;;
5257;SDS011;2651;51.594;9.928;2022-10-13T04:50:25;17.77;;;12.35;;
5257;SDS011;2651;51.594;9.928;2022-10-13T04:51:27;21.42;;;12.75;;
5257;SDS011;2651;51.594;9.928;2022-10-13T04:52:28;17.27;;;12.25;;
5257;SDS011;2651;51.594;9.928;2022-10-13T04:53:30;17.92;;;12.20;;
5257;SDS011;2651;51.594;9.928;2022-10-13T04:54:32;19.02;;;12.43;;
5257;SDS011;2651;51.594;9.928;2022-10-13T04:55:35;24.50;;;12.10;;
5257;SDS011;2651;51.594;9.928;2022-10-13T04:56:37;17.95;;;12.43;;
5257;SDS011;2651;51.594;9.928;2022-10-13T04:57:38;15.73;;;12.10;;
5257;SDS011;2651;51.594;9.928;2022-10-13T04:58:40;14.40;;;10.85;;
5257;SDS011;2651;51.594;9.928;2022-10-13T04:59:43;20.23;;;12.27;;
5257;SDS011;2651;51.594;9.928;2022-10-13T05:00:45;17.63;;;11.43;;
5257;SDS011;2651;51.594;9.928;2022-10-13T05:01:47;18.42;;;13.25;;
5257;SDS011;2651;51.594;9.928;2022-10-13T05:02:49;17.13;;;12.75;;
5257;SDS011;2651;51.594;9.928;2022-10-13T05:03:54;17.83;;;12.32;;
5257;SDS011;2651;51.594;9.928;2022-10-13T05:04:58;20.52;;;12.85;;
5257;SDS011;2651;51.594;9.928;2022-10-13T05:05:59;28.60;;;17.00;;
5257;SDS011;2651;51.594;9.928;2022-10-13T05:07:01;19.48;;;12.68;;
5257;SDS011;2651;51.594;9.928;2022-10-13T05:08:18;47.00;;;15.93;;
5257;SDS011;2651;51.594;9.928;2022-10-13T05:09:20;24.00;;;15.52;;
5257;SDS011;2651;51.594;9.928;2022-10-13T05:10:22;31.13;;;17.25;;
5257;SDS011;2651;51.594;9.928;2022-10-13T05:11:24;23.90;;;14.90;;
5257;SDS011;2651;51.594;9.928;2022-10-13T05:12:26;19.02;;;14.20;;
5257;SDS011;2651;51.594;9.928;2022-10-13T05:13:28;26.38;;;13.27;;
5257;SDS011;2651;51.594;9.928;2022-10-13T05:14:30;20.23;;;12.98;;
5257;SDS011;2651;51.594;9.928;2022-10-13T05:15:33;22.23;;;14.75;;
5257;SDS011;2651;51.594;9.928;2022-10-13T05:16:35;20.95;;;15.43;;
5257;SDS011;2651;51.594;9.928;2022-10-13T05:17:36;19.67;;;15.38;;
5257;SDS011;2651;51.594;9.928;2022-10-13T05:18:38;25.20;;;16.25;;
5257;SDS011;2651;51.594;9.928;2022-10-13T05:19:40;57.05;;;37.50;;
5257;SDS011;2651;51.594;9.928;2022-10-13T05:20:41;32.85;;;24.08;;
5257;SDS011;2651;51.594;9.928;2022-10-13T05:21:43;36.55;;;18.52;;
5257;SDS011;2651;51.594;9.928;2022-10-13T05:22:45;27.77;;;20.92;;
5257;SDS011;2651;51.594;9.928;2022-10-13T05:23:46;22.95;;;17.33;;
5257;SDS011;2651;51.594;9.928;2022-10-13T05:24:48;29.63;;;22.10;;
5257;SDS011;2651;51.594;9.928;2022-10-13T05:25:50;38.25;;;24.92;;
5257;SDS011;2651;51.594;9.928;2022-10-13T05:26:52;30.38;;;21.20;;
5257;SDS011;2651;51.594;9.928;2022-10-13T05:27:53;22.83;;;18.83;;
5257;SDS011;2651;51.594;9.928;2022-10-13T05:28:55;28.58;;;16.98;;
5257;SDS011;2651;51.594;9.928;2022-10-13T05:30:01;20.02;;;14.40;;
5257;SDS011;2651;51.594;9.928;2022-10-13T05:32:15;19.05;;;14.05;;
5257;SDS011;2651;51.594;9.928;2022-10-13T05:33:17;21.13;;;14.45;;
5257;SDS011;2651;51.594;9.928;2022-10-13T05:34:19;24.90;;;16.60;;
5257;SDS011;2651;51.594;9.928;2022-10-13T05:35:20;23.70;;;16.63;;
5257;SDS011;2651;51.594;9.928;2022-10-13T05:36:23;22.67;;;16.23;;
5257;SDS011;2651;51.594;9.928;2022-10-13T05:37:26;26.85;;;16.88;;
5257;SDS011;2651;51.594;9.928;2022-10-13T05:38:28;24.65;;;17.67;;
5257;SDS011;2651;51.594;9.928;2022-10-13T05:39:30;26.73;;;15.13;;
5257;SDS011;2651;51.594;9.928;2022-10-13T05:40:31;27.02;;;16.27;;
5257;SDS011;2651;51.594;9.928;2022-10-13T05:41:33;26.48;;;16.27;;
5257;SDS011;2651;51.594;9.928;2022-10-13T05:42:35;21.80;;;15.82;;
5257;SDS011;2651;51.594;9.928;2022-10-13T05:43:37;21.70;;;15.27;;
5257;SDS011;2651;51.594;9.928;2022-10-13T05:44:40;26.25;;;15.23;;
5257;SDS011;2651;51.594;9.928;2022-10-13T05:45:42;21.52;;;14.00;;
5257;SDS011;2651;51.594;9.928;2022-10-13T05:46:43;24.63;;;15.18;;
5257;SDS011;2651;51.594;9.928;2022-10-13T05:47:45;29.75;;;18.10;;
5257;SDS011;2651;51.594;9.928;2022-10-13T05:48:47;28.95;;;17.38;;
5257;SDS011;2651;51.594;9.928;2022-10-13T05:49:48;32.50;;;20.73;;
5257;SDS011;2651;51.594;9.928;2022-10-13T05:50:50;29.45;;;18.70;;
5257;SDS011;2651;51.594;9.928;2022-10-13T05:51:53;30.42;;;20.60;;
5257;SDS011;2651;51.594;9.928;2022-10-13T05:52:57;31.92;;;18.50;;
5257;SDS011;2651;51.594;9.928;2022-10-13T05:54:06;32.47;;;18.27;;
5257;SDS011;2651;51.594;9.928;2022-10-13T05:55:25;30.67;;;18.80;;
5257;SDS011;2651;51.594;9.928;2022-10-13T05:56:29;35.13;;;18.85;;
5257;SDS011;2651;51.594;9.928;2022-10-13T05:57:35;27.40;;;17.98;;
5257;SDS011;2651;51.594;9.928;2022-10-13T05:58:42;28.08;;;18.70;;
5257;SDS011;2651;51.594;9.928;2022-10-13T05:59:50;39.60;;;20.60;;
5257;SDS011;2651;51.594;9.928;2022-10-13T06:00:56;35.30;;;18.63;;
5257;SDS011;2651;51.594;9.928;2022-10-13T06:01:57;31.73;;;18.63;;
5257;SDS011;2651;51.594;9.928;2022-10-13T06:04:08;24.75;;;17.48;;
5257;SDS011;2651;51.594;9.928;2022-10-13T06:05:18;24.05;;;15.93;;
5257;SDS011;2651;51.594;9.928;2022-10-13T06:06:22;31.55;;;20.83;;
5257;SDS011;2651;51.594;9.928;2022-10-13T06:07:31;29.88;;;19.85;;
5257;SDS011;2651;51.594;9.928;2022-10-13T06:08:33;28.50;;;17.38;;
5257;SDS011;2651;51.594;9.928;2022-10-13T06:09:35;26.30;;;16.42;;
5257;SDS011;2651;51.594;9.928;2022-10-13T06:10:38;31.23;;;15.85;;
5257;SDS011;2651;51.594;9.928;2022-10-13T06:11:41;24.90;;;15.82;;
5257;SDS011;2651;51.594;9.928;2022-10-13T06:12:43;25.20;;;14.40;;
5257;SDS011;2651;51.594;9.928;2022-10-13T06:13:44;48.03;;;26.73;;
5257;SDS011;2651;51.594;9.928;2022-10-13T06:14:46;26.95;;;16.98;;
5257;SDS011;2651;51.594;9.928;2022-10-13T06:15:48;24.60;;;16.48;;
5257;SDS011;2651;51.594;9.928;2022-10-13T06:16:50;25.05;;;16.27;;
5257;SDS011;2651;51.594;9.928;2022-10-13T06:17:51;24.65;;;16.42;;
5257;SDS011;2651;51.594;9.928;2022-10-13T06:18:53;21.85;;;16.05;;
5257;SDS011;2651;51.594;9.928;2022-10-13T06:19:55;30.33;;;17.55;;
5257;SDS011;2651;51.594;9.928;2022-10-13T06:20:56;22.77;;;15.52;;
5257;SDS011;2651;51.594;9.928;2022-10-13T06:21:58;26.35;;;17.17;;
5257;SDS011;2651;51.594;9.928;2022-10-13T06:23:03;26.08;;;15.70;;
5257;SDS011;2651;51.594;9.928;2022-10-13T06:24:05;23.42;;;15.48;;
5257;SDS011;2651;51.594;9.928;2022-10-13T06:25:07;25.00;;;15.52;;
5257;SDS011;2651;51.594;9.928;2022-10-13T06:26:09;31.10;;;16.13;;
5257;SDS011;2651;51.594;9.928;2022-10-13T06:27:11;24.35;;;16.00;;
5257;SDS011;2651;51.594;9.928;2022-10-13T06:28:12;21.00;;;16.20;;
5257;SDS011;2651;51.594;9.928;2022-10-13T06:29:14;25.95;;;16.13;;
5257;SDS011;2651;51.594;9.928;2022-10-13T06:30:16;23.00;;;15.73;;
5257;SDS011;2651;51.594;9.928;2022-10-13T06:31:18;26.38;;;15.05;;
5257;SDS011;2651;51.594;9.928;2022-10-13T06:32:20;31.88;;;14.73;;
5257;SDS011;2651;51.594;9.928;2022-10-13T06:33:23;31.40;;;15.73;;
5257;SDS011;2651;51.594;9.928;2022-10-13T06:34:25;23.65;;;15.80;;
5257;SDS011;2651;51.594;9.928;2022-10-13T06:35:27;27.13;;;16.63;;
5257;SDS011;2651;51.594;9.928;2022-10-13T06:36:28;30.58;;;15.88;;
5257;SDS011;2651;51.594;9.928;2022-10-13T06:37:30;26.17;;;16.00;;
5257;SDS011;2651;51.594;9.928;2022-10-13T06:38:32;22.30;;;15.38;;
5257;SDS011;2651;51.594;9.928;2022-10-13T06:39:34;31.98;;;16.05;;
5257;SDS011;2651;51.594;9.928;2022-10-13T06:40:35;26.98;;;16.63;;
5257;SDS011;2651;51.594;9.928;2022-10-13T06:41:37;37.80;;;18.20;;
5257;SDS011;2651;51.594;9.928;2022-10-13T06:42:39;25.70;;;16.67;;
5257;SDS011;2651;51.594;9.928;2022-10-13T06:43:40;22.05;;;14.65;;
5257;SDS011;2651;51.594;9.928;2022-10-13T06:44:42;19.95;;;15.10;;
5257;SDS011;2651;51.594;9.928;2022-10-13T06:45:44;29.60;;;16.17;;
5257;SDS011;2651;51.594;9.928;2022-10-13T06:46:45;30.73;;;18.15;;
5257;SDS011;2651;51.594;9.928;2022-10-13T06:47:47;28.33;;;16.40;;
5257;SDS011;2651;51.594;9.928;2022-10-13T06:48:49;29.92;;;18.63;;
5257;SDS011;2651;51.594;9.928;2022-10-13T06:49:51;27.77;;;16.65;;
5257;SDS011;2651;51.594;9.928;2022-10-13T06:50:53;28.63;;;17.15;;